Terminal Aerodrome Forecast
Issued by NWS

Home | Current Version | Previous Version | Text Only | Print | Product List | Glossary On
Versions: 1 2 3 4 5 6 7 8 9 10 11 12 13 14
000
FTUS42 KTBW 232354
TAFRSW
TAF
KRSW 232354Z 2400/2424 24010KT P6SM FEW025 BKN060
     FM240400 21003KT 6SM BR SCT007 BKN020
      TEMPO 2408/2412 3SM BR BKN007
     FM241500 25008KT P6SM SCT015 BKN050
     FM241800 26013KT P6SM VCTS SCT040CB BKN100=

USA.gov is the U.S. government's official web portal to all federal, state and local government web resources and services.